Time;durP1;ratioP1;P1;durP2;ratioP2;P2;SDS_P1;SDS_P2;PMS_P1;PMS_P2;Temp;Humidity;BMP_temperature;BMP_pressure;BME280_temperature;BME280_humidity;BME280_pressure;Samples;Min_cycle;Max_cycle;Signal;HPM_P1;HPM_P2
2023/03/02 00:02:21;;;;;;;18.33;8.83;;;;;;;-145.18;100.00;47301.16;5015280;28;20057;-68
2023/03/02 00:04:53;;;;;;;17.65;8.80;;;;;;;-145.18;100.00;47248.41;5015146;28;20050;-68
2023/03/02 00:07:28;;;;;;;20.65;8.98;;;;;;;-145.18;100.00;47203.47;5033253;28;20040;-68
2023/03/02 00:09:54;;;;;;;24.50;10.05;;;;;;;-145.18;100.00;47146.81;5033051;28;20068;-68
2023/03/02 00:12:19;;;;;;;16.10;8.50;;;;;;;-145.18;100.00;47133.13;5033165;28;20048;-68
2023/03/02 00:14:45;;;;;;;15.37;8.17;;;;;;;-145.18;100.00;47105.78;5032844;28;20041;-68
2023/03/02 00:17:10;;;;;;;25.27;9.33;;;;;;;-145.18;100.00;47041.31;5033166;28;20029;-68
2023/03/02 00:19:36;;;;;;;17.73;9.10;;;;;;;-145.18;100.00;47053.03;5032650;28;20117;-68
2023/03/02 00:22:02;;;;;;;18.00;9.98;;;;;;;-145.18;100.00;47006.16;5032815;28;20065;-68
2023/03/02 00:24:28;;;;;;;19.97;9.40;;;;;;;-145.18;100.00;46969.03;5033023;28;20068;-68
2023/03/02 00:26:53;;;;;;;19.03;10.17;;;;;;;-145.18;100.00;46953.41;5032379;28;20471;-68
2023/03/02 00:29:18;;;;;;;19.43;10.13;;;;;;;-145.18;100.00;46929.97;5032873;28;20423;-68
2023/03/02 00:31:44;;;;;;;34.30;11.70;;;;;;;-145.18;100.00;46881.13;5032397;28;20542;-68
2023/03/02 00:34:10;;;;;;;23.13;12.40;;;;;;;-145.18;100.00;46844.00;5032810;28;20382;-68
2023/03/02 00:36:35;;;;;;;23.50;12.33;;;;;;;-145.18;100.00;46804.94;5032257;28;20030;-68
2023/03/02 00:39:02;;;;;;;26.07;13.03;;;;;;;-145.18;100.00;46781.50;5032637;28;20085;-68
2023/03/02 00:41:27;;;;;;;24.35;12.93;;;;;;;-145.18;100.00;46769.78;5032476;28;20033;-68
2023/03/02 00:43:53;;;;;;;24.40;12.93;;;;;;;-145.18;100.00;46746.34;5032769;28;20036;-68
2023/03/02 00:46:21;;;;;;;31.40;14.63;;;;;;;-145.18;100.00;46730.72;5032391;28;20394;-68
2023/03/02 00:48:46;;;;;;;29.42;13.95;;;;;;;-145.18;100.00;46705.31;5032309;28;20021;-68
2023/03/02 00:51:12;;;;;;;33.10;15.77;;;;;;;-145.18;100.00;46695.56;5032824;28;20037;-68
2023/03/02 00:53:39;;;;;;;34.65;15.95;;;;;;;-145.18;100.00;46683.84;5031907;28;20040;-68
2023/03/02 00:56:05;;;;;;;37.33;17.58;;;;;;;-145.18;100.00;46674.06;5032418;28;20029;-68
2023/03/02 00:58:31;;;;;;;37.05;18.38;;;;;;;-145.18;100.00;46664.31;5032062;28;20033;-68
2023/03/02 01:00:57;;;;;;;38.30;18.93;;;;;;;-145.18;100.00;46635.00;5032101;28;20422;-68
2023/03/02 01:03:23;;;;;;;37.47;18.70;;;;;;;-145.18;100.00;46635.00;5032144;28;20025;-68
2023/03/02 01:05:54;;;;;;;37.93;19.53;;;;;;;-145.18;100.00;46629.13;5031774;28;20211;-68
2023/03/02 01:08:20;;;;;;;40.08;19.23;;;;;;;-145.18;100.00;46658.44;5031907;28;20034;-68
2023/03/02 01:10:45;;;;;;;45.20;19.75;;;;;;;-145.18;100.00;46656.50;5031132;28;20394;-68
2023/03/02 01:13:10;;;;;;;40.27;20.03;;;;;;;-145.18;100.00;46633.06;5031808;28;20033;-68
2023/03/02 01:15:36;;;;;;;44.13;22.17;;;;;;;-145.18;100.00;46633.06;5031932;28;20092;-68
2023/03/02 01:18:01;;;;;;;48.27;21.63;;;;;;;-145.18;100.00;46631.09;5031826;28;20029;-68
2023/03/02 01:20:27;;;;;;;43.63;21.93;;;;;;;-145.18;100.00;46627.19;5013998;28;20041;-69
2023/03/02 01:22:52;;;;;;;47.43;21.13;;;;;;;-145.18;100.00;46621.31;5031529;28;20048;-68
2023/03/02 01:25:18;;;;;;;44.77;22.23;;;;;;;-145.18;100.00;46625.22;5031939;28;20084;-68
2023/03/02 01:27:43;;;;;;;46.60;23.13;;;;;;;-145.18;100.00;46619.38;5031335;28;20091;-68
2023/03/02 01:30:09;;;;;;;48.53;23.10;;;;;;;-145.18;100.00;46621.31;5031731;28;20048;-68
2023/03/02 01:32:35;;;;;;;54.17;23.00;;;;;;;-145.18;100.00;46625.22;5013421;28;20397;-68
2023/03/02 01:35:00;;;;;;;54.67;25.83;;;;;;;-145.18;100.00;46631.09;5031632;28;20050;-68
2023/03/02 01:37:25;;;;;;;53.30;24.90;;;;;;;-145.18;100.00;46642.81;5031514;28;20033;-68
2023/03/02 01:39:51;;;;;;;57.13;25.10;;;;;;;-145.18;100.00;46660.41;5031326;28;20048;-68
2023/03/02 01:42:17;;;;;;;60.20;27.77;;;;;;;-145.18;100.00;46636.94;5031203;28;20030;-68
2023/03/02 01:44:45;;;;;;;57.63;26.33;;;;;;;-145.18;100.00;46672.13;5031104;28;20022;-68
2023/03/02 01:47:27;;;;;;;62.75;29.00;;;;;;;-145.18;100.00;46683.84;5031071;28;20079;-68
2023/03/02 01:50:03;;;;;;;60.42;28.38;;;;;;;-145.18;100.00;46689.69;5031150;28;20108;-68
2023/03/02 01:52:32;;;;;;;59.58;29.25;;;;;;;-145.18;100.00;46703.38;5031231;28;20155;-68
2023/03/02 01:55:03;;;;;;;70.80;30.25;;;;;;;-145.18;100.00;46707.28;5030985;28;20084;-68
2023/03/02 01:57:33;;;;;;;71.78;32.10;;;;;;;-145.18;100.00;46705.31;5030956;28;20033;-68
2023/03/02 02:00:07;;;;;;;65.88;29.65;;;;;;;-145.18;100.00;46707.28;5031071;28;20509;-68
2023/03/02 02:02:33;;;;;;;65.88;31.27;;;;;;;-145.18;100.00;46707.28;5030945;28;20029;-68
2023/03/02 02:04:59;;;;;;;66.05;29.83;;;;;;;-145.18;100.00;46705.31;5030920;28;20417;-68
2023/03/02 02:07:26;;;;;;;69.30;29.90;;;;;;;-145.18;100.00;46703.38;5030668;28;20025;-68
2023/03/02 02:09:53;;;;;;;69.65;30.98;;;;;;;-145.18;100.00;46705.31;5030660;28;20425;-68
2023/03/02 02:12:21;;;;;;;72.30;32.65;;;;;;;-145.18;100.00;46707.28;5013333;28;20138;-68
2023/03/02 02:14:47;;;;;;;73.07;31.58;;;;;;;-145.18;100.00;46703.38;5030404;28;20021;-68
2023/03/02 02:17:13;;;;;;;75.82;32.40;;;;;;;-145.18;100.00;46705.31;5030638;28;20038;-68
2023/03/02 02:19:45;;;;;;;78.57;33.00;;;;;;;-145.18;100.00;46701.41;5030476;28;20092;-68
2023/03/02 02:22:14;;;;;;;72.35;32.17;;;;;;;-145.18;100.00;46703.38;5029724;28;20144;-68
2023/03/02 02:24:51;;;;;;;79.15;33.35;;;;;;;-145.18;100.00;46701.41;5030355;28;20037;-69
2023/03/02 02:27:16;;;;;;;74.45;33.92;;;;;;;-145.18;100.00;46699.47;5030586;28;20359;-68
2023/03/02 02:29:47;;;;;;;75.33;32.90;;;;;;;-145.18;100.00;46703.38;5030476;28;20060;-68
2023/03/02 02:32:16;;;;;;;73.03;32.58;;;;;;;-145.18;100.00;46695.56;5030481;28;20021;-68
2023/03/02 02:34:57;;;;;;;85.63;33.55;;;;;;;-145.18;100.00;46703.38;5030318;28;20033;-68
2023/03/02 02:37:27;;;;;;;81.38;34.22;;;;;;;-145.18;100.00;46699.47;5030320;28;20026;-68
2023/03/02 02:39:54;;;;;;;76.05;33.58;;;;;;;-145.18;100.00;46695.56;5030177;28;20048;-68
2023/03/02 02:42:33;;;;;;;85.13;36.03;;;;;;;-145.18;100.00;46699.47;5030283;28;20033;-68
2023/03/02 02:45:02;;;;;;;85.38;35.80;;;;;;;-145.18;100.00;46683.84;5030130;28;20040;-68
2023/03/02 02:47:27;;;;;;;87.05;34.75;;;;;;;-145.18;100.00;46687.75;5029977;28;20026;-68
2023/03/02 02:49:55;;;;;;;79.10;33.97;;;;;;;-145.18;100.00;46689.69;5030129;28;20540;-68
2023/03/02 02:52:23;;;;;;;83.38;32.55;;;;;;;-145.18;100.00;46689.69;5029945;28;20041;-68
2023/03/02 02:54:51;;;;;;;82.88;34.72;;;;;;;-145.18;100.00;46687.75;5012104;28;20454;-68
2023/03/02 02:57:18;;;;;;;91.00;35.97;;;;;;;-145.18;100.00;46683.84;5030169;28;20029;-68
2023/03/02 02:59:49;;;;;;;86.22;34.30;;;;;;;-145.18;100.00;46681.88;5029869;28;20034;-68
2023/03/02 03:02:24;;;;;;;83.72;33.75;;;;;;;-145.18;100.00;46679.94;5346972;22;20620;-68
2023/03/02 03:04:50;;;;;;;86.93;35.28;;;;;;;-145.18;100.00;46683.84;5010649;28;20473;-68
2023/03/02 03:07:23;;;;;;;78.27;33.20;;;;;;;-145.18;100.00;46681.88;5010084;28;20045;-68
2023/03/02 03:10:04;;;;;;;88.75;34.10;;;;;;;-145.18;100.00;46683.84;5010457;28;20045;-68
2023/03/02 03:12:32;;;;;;;82.75;32.85;;;;;;;-145.18;100.00;46674.06;5010129;28;20073;-68
2023/03/02 03:15:00;;;;;;;88.07;35.08;;;;;;;-145.18;100.00;46681.88;5010048;28;20402;-68
2023/03/02 03:17:25;;;;;;;88.63;34.58;;;;;;;-145.18;100.00;46677.97;4992371;28;20360;-68
2023/03/02 03:19:51;;;;;;;83.27;34.57;;;;;;;-145.18;100.00;46681.88;5010179;28;20101;-68
2023/03/02 03:22:16;;;;;;;91.73;36.00;;;;;;;-145.18;100.00;46676.03;5009936;28;20371;-68
2023/03/02 03:24:43;;;;;;;88.47;35.97;;;;;;;-145.18;100.00;46676.03;5010343;28;20042;-68
2023/03/02 03:27:13;;;;;;;90.80;35.50;;;;;;;-145.18;100.00;46676.03;5009712;28;20046;-68
2023/03/02 03:29:41;;;;;;;87.40;34.47;;;;;;;-145.18;100.00;46677.97;5010111;28;20474;-68
2023/03/02 03:32:07;;;;;;;92.93;34.75;;;;;;;-145.18;100.00;46676.03;5009835;28;20061;-68
2023/03/02 03:34:39;;;;;;;87.47;34.57;;;;;;;-145.18;100.00;46676.03;5013547;28;20066;-68
2023/03/02 03:37:05;;;;;;;84.78;34.17;;;;;;;-145.18;100.00;46674.06;5013784;28;20053;-68
2023/03/02 03:39:31;;;;;;;86.90;33.83;;;;;;;-145.18;100.00;46672.13;5014168;28;20445;-67
2023/03/02 03:41:56;;;;;;;91.23;33.70;;;;;;;-145.18;100.00;46677.97;4996148;28;20026;-68
2023/03/02 03:44:22;;;;;;;91.73;33.40;;;;;;;-145.18;100.00;46674.06;5014024;28;20105;-68
2023/03/02 03:46:48;;;;;;;94.43;35.00;;;;;;;-145.18;100.00;46672.13;5013844;28;20034;-68
2023/03/02 03:49:13;;;;;;;91.70;34.10;;;;;;;-145.18;100.00;46676.03;5013555;28;20047;-68
2023/03/02 03:51:39;;;;;;;93.40;35.47;;;;;;;-145.18;100.00;46668.22;5013901;28;20030;-68
2023/03/02 03:54:07;;;;;;;91.83;33.83;;;;;;;-145.18;100.00;46676.03;5013464;28;20168;-68
2023/03/02 03:56:41;;;;;;;87.28;32.95;;;;;;;-145.18;100.00;46674.06;5013604;28;20104;-68
2023/03/02 03:59:09;;;;;;;93.32;34.47;;;;;;;-145.18;100.00;46666.25;5013199;28;20038;-68
2023/03/02 04:01:40;;;;;;;90.25;34.35;;;;;;;-145.18;100.00;46672.13;5008474;28;20109;-68
2023/03/02 04:04:08;;;;;;;88.00;32.15;;;;;;;-145.18;100.00;46679.94;4993905;28;20050;-68
2023/03/02 04:06:33;;;;;;;77.35;32.03;;;;;;;-145.18;100.00;46668.22;4994016;28;20096;-68
2023/03/02 04:09:03;;;;;;;88.10;32.60;;;;;;;-145.18;100.00;46668.22;4993279;28;20038;-68
2023/03/02 04:11:31;;;;;;;88.00;32.38;;;;;;;-145.18;100.00;46668.22;4993858;28;20681;-68
2023/03/02 04:13:56;;;;;;;96.00;34.08;;;;;;;-145.18;100.00;46672.13;4993498;28;20027;-68
2023/03/02 04:16:22;;;;;;;84.70;31.63;;;;;;;-145.18;100.00;46674.06;4993912;28;20394;-68
2023/03/02 04:18:47;;;;;;;86.53;33.23;;;;;;;-145.18;100.00;46664.31;4993405;28;20038;-68
2023/03/02 04:21:12;;;;;;;94.10;33.53;;;;;;;-145.18;100.00;46666.25;4993374;28;20030;-68
2023/03/02 04:23:38;;;;;;;88.63;33.17;;;;;;;-145.18;100.00;46670.16;4993570;28;20034;-68
2023/03/02 04:26:04;;;;;;;84.10;32.33;;;;;;;-145.18;100.00;46670.16;4993552;28;20117;-67
2023/03/02 04:28:30;;;;;;;77.47;30.53;;;;;;;-145.18;100.00;46668.22;4993612;28;20027;-68
2023/03/02 04:30:55;;;;;;;84.72;31.58;;;;;;;-145.18;100.00;46668.22;4993857;28;20061;-68
2023/03/02 04:33:21;;;;;;;88.30;31.67;;;;;;;-145.18;100.00;46668.22;4993363;28;20475;-68
2023/03/02 04:35:46;;;;;;;87.77;31.43;;;;;;;-145.18;100.00;46670.16;4993746;28;20031;-68
2023/03/02 04:38:12;;;;;;;90.53;34.00;;;;;;;-145.18;100.00;46674.06;4992982;28;20077;-68
2023/03/02 04:40:37;;;;;;;88.03;32.00;;;;;;;-145.18;100.00;46676.03;4993180;28;20034;-68
2023/03/02 04:43:03;;;;;;;77.67;31.53;;;;;;;-145.18;100.00;46670.16;4993044;28;20042;-68
2023/03/02 04:45:28;;;;;;;78.27;31.17;;;;;;;-145.18;100.00;46670.16;4992775;28;20045;-68
2023/03/02 04:47:53;;;;;;;82.77;30.50;;;;;;;-145.18;100.00;46666.25;4993303;28;20105;-68
2023/03/02 04:50:19;;;;;;;88.73;30.57;;;;;;;-145.18;100.00;46672.13;4993137;28;20146;-68
2023/03/02 04:52:44;;;;;;;76.93;31.20;;;;;;;-145.18;100.00;46677.97;4992849;28;20117;-68
2023/03/02 04:55:18;;;;;;;81.27;31.37;;;;;;;-145.18;100.00;46672.13;4992982;28;20038;-68
2023/03/02 04:57:43;;;;;;;69.25;28.42;;;;;;;-145.18;100.00;46670.16;4992853;28;20037;-67
2023/03/02 05:00:09;;;;;;;83.27;30.37;;;;;;;-145.18;100.00;46677.97;4992982;28;20050;-68
2023/03/02 05:02:35;;;;;;;77.93;31.63;;;;;;;-145.18;100.00;46674.06;4992335;28;20038;-67
2023/03/02 05:05:00;;;;;;;80.67;31.47;;;;;;;-145.18;100.00;46672.13;4975312;28;20046;-68
2023/03/02 05:07:25;;;;;;;84.07;32.93;;;;;;;-145.18;100.00;46672.13;4992678;28;20447;-67
2023/03/02 05:09:51;;;;;;;76.93;28.93;;;;;;;-145.18;100.00;46668.22;4992924;28;20043;-67
2023/03/02 05:12:18;;;;;;;78.73;30.43;;;;;;;-145.18;100.00;46676.03;4992568;28;20030;-68
2023/03/02 05:14:43;;;;;;;83.70;31.02;;;;;;;-145.18;100.00;46664.31;4992788;28;20085;-68
2023/03/02 05:17:09;;;;;;;81.17;31.23;;;;;;;-145.18;100.00;46668.22;4975100;28;20042;-68
2023/03/02 05:19:34;;;;;;;80.60;30.03;;;;;;;-145.18;100.00;46668.22;4992307;28;20046;-68
2023/03/02 05:21:59;;;;;;;82.20;30.90;;;;;;;-145.18;100.00;46670.16;4992728;28;20038;-68
2023/03/02 05:24:25;;;;;;;79.60;30.67;;;;;;;-145.18;100.00;46672.13;4992332;28;20030;-68
2023/03/02 05:26:51;;;;;;;82.73;31.07;;;;;;;-145.18;100.00;46674.06;4974986;28;20045;-68
2023/03/02 05:29:16;;;;;;;78.07;30.83;;;;;;;-145.18;100.00;46668.22;4992198;28;20026;-68
2023/03/02 05:31:43;;;;;;;78.17;29.50;;;;;;;-145.18;100.00;46666.25;4992496;28;20088;-68
2023/03/02 05:34:11;;;;;;;81.13;31.52;;;;;;;-145.18;100.00;46662.34;4974401;28;20412;-68
2023/03/02 05:36:37;;;;;;;80.45;31.13;;;;;;;-145.18;100.00;46670.16;4992309;28;20030;-67
2023/03/02 05:39:03;;;;;;;83.77;31.23;;;;;;;-145.18;100.00;46674.06;4991659;28;20129;-68
2023/03/02 05:41:29;;;;;;;76.70;29.33;;;;;;;-145.18;100.00;46674.06;4992171;28;20042;-68
2023/03/02 05:43:54;;;;;;;74.13;28.27;;;;;;;-145.18;100.00;46670.16;4992087;28;20510;-68
2023/03/02 05:46:20;;;;;;;79.67;30.97;;;;;;;-145.18;100.00;46672.13;4974737;28;20030;-68
2023/03/02 05:48:45;;;;;;;78.00;29.97;;;;;;;-145.18;100.00;46668.22;4992243;28;20136;-68
2023/03/02 05:51:11;;;;;;;69.73;28.00;;;;;;;-145.18;100.00;46672.13;4992319;28;20026;-68
2023/03/02 05:53:36;;;;;;;73.30;29.73;;;;;;;-145.18;100.00;46662.34;4991742;28;20030;-68
2023/03/02 05:56:02;;;;;;;74.70;31.23;;;;;;;-145.18;100.00;46668.22;4991713;28;20034;-68
2023/03/02 05:58:28;;;;;;;82.28;30.48;;;;;;;-145.18;100.00;46668.22;4991907;28;20371;-68
2023/03/02 06:00:53;;;;;;;74.87;27.63;;;;;;;-145.18;100.00;46670.16;4991856;28;20038;-68
2023/03/02 06:03:20;;;;;;;79.72;29.92;;;;;;;-145.18;100.00;46672.13;4991090;28;20054;-68
2023/03/02 06:05:49;;;;;;;77.77;28.50;;;;;;;-145.18;100.00;46672.13;4991788;28;20167;-68
2023/03/02 06:08:16;;;;;;;80.75;29.25;;;;;;;-145.18;100.00;46674.06;4991147;28;20038;-68
2023/03/02 06:10:41;;;;;;;72.05;28.67;;;;;;;-145.18;100.00;46664.31;4991775;28;20048;-68
2023/03/02 06:13:07;;;;;;;74.57;28.50;;;;;;;-145.18;100.00;46670.16;4973935;28;20034;-68
2023/03/02 06:15:32;;;;;;;78.87;30.83;;;;;;;-145.18;100.00;46670.16;4992021;28;20042;-68
2023/03/02 06:17:58;;;;;;;80.33;29.83;;;;;;;-145.18;100.00;46666.25;4990882;28;20038;-68
2023/03/02 06:20:23;;;;;;;78.87;30.30;;;;;;;-145.18;100.00;46668.22;4991551;28;20045;-68
2023/03/02 06:22:49;;;;;;;68.10;26.97;;;;;;;-145.18;100.00;46666.25;4991201;28;20046;-68
2023/03/02 06:25:20;;;;;;;78.73;28.40;;;;;;;-145.18;100.00;46668.22;4991376;28;20310;-68
2023/03/02 06:27:48;;;;;;;80.40;29.38;;;;;;;-145.18;100.00;46668.22;4990932;28;20035;-68
2023/03/02 06:30:15;;;;;;;73.82;29.17;;;;;;;-145.18;100.00;46672.13;4991254;28;20578;-68
2023/03/02 06:32:41;;;;;;;77.18;29.10;;;;;;;-145.18;100.00;46668.22;4990922;28;20030;-68
2023/03/02 06:35:08;;;;;;;76.90;29.52;;;;;;;-145.18;100.00;46674.06;4973591;28;20402;-68
2023/03/02 06:37:33;;;;;;;71.28;27.90;;;;;;;-145.18;100.00;46677.97;4990959;28;20100;-68
2023/03/02 06:39:59;;;;;;;73.50;29.33;;;;;;;-145.18;100.00;46672.13;4990849;28;20400;-68
2023/03/02 06:42:26;;;;;;;74.40;28.90;;;;;;;-145.18;100.00;46672.13;4991263;28;20109;-68
2023/03/02 06:44:53;;;;;;;69.43;27.27;;;;;;;-145.18;100.00;46666.25;4973354;28;20395;-68
2023/03/02 06:47:18;;;;;;;73.85;27.88;;;;;;;-145.18;100.00;46668.22;4990914;28;20042;-68
2023/03/02 06:49:44;;;;;;;71.50;27.63;;;;;;;-145.18;100.00;46670.16;4990844;28;20109;-68
2023/03/02 06:52:12;;;;;;;70.73;28.80;;;;;;;-145.18;100.00;46668.22;4990992;28;20037;-68
2023/03/02 06:54:37;;;;;;;75.95;29.40;;;;;;;-145.18;100.00;46668.22;4990896;28;20398;-68
2023/03/02 06:57:03;;;;;;;75.03;29.27;;;;;;;-145.18;100.00;46668.22;4990823;28;20042;-68
2023/03/02 06:59:28;;;;;;;68.97;30.00;;;;;;;-145.18;100.00;46668.22;4990691;28;20129;-68
2023/03/02 07:01:54;;;;;;;76.00;28.67;;;;;;;-145.18;100.00;46666.25;4990926;28;20401;-68
2023/03/02 07:04:19;;;;;;;73.40;28.43;;;;;;;-145.18;100.00;46664.31;4990047;28;20109;-68
2023/03/02 07:06:45;;;;;;;74.07;28.20;;;;;;;-145.18;100.00;46672.13;4990953;28;20049;-68
2023/03/02 07:09:10;;;;;;;72.60;27.90;;;;;;;-145.18;100.00;46666.25;4989962;28;20246;-68
2023/03/02 07:11:35;;;;;;;73.00;28.23;;;;;;;-145.18;100.00;46666.25;4990983;28;20088;-68
2023/03/02 07:14:01;;;;;;;71.90;27.57;;;;;;;-145.18;100.00;46670.16;4990330;28;20030;-68
2023/03/02 07:16:27;;;;;;;77.17;30.17;;;;;;;-145.18;100.00;46668.22;4990961;28;20033;-68
2023/03/02 07:18:53;;;;;;;75.90;27.48;;;;;;;-145.18;100.00;46660.41;4990407;28;20031;-68
2023/03/02 07:21:18;;;;;;;77.67;28.77;;;;;;;-145.18;100.00;46662.34;4990533;28;20042;-68
2023/03/02 07:23:44;;;;;;;78.33;29.70;;;;;;;-145.18;100.00;46664.31;4990634;28;20026;-68
2023/03/02 07:26:09;;;;;;;73.47;28.23;;;;;;;-145.18;100.00;46660.41;4990448;28;20069;-68
2023/03/02 07:28:38;;;;;;;74.93;28.73;;;;;;;-145.18;100.00;46664.31;4990681;28;20038;-68
2023/03/02 07:31:04;;;;;;;79.72;31.10;;;;;;;-145.18;100.00;46662.34;4973593;28;20030;-68
2023/03/02 07:33:30;;;;;;;76.03;30.05;;;;;;;-145.18;100.00;46668.22;4990259;28;20038;-68
2023/03/02 07:35:55;;;;;;;83.30;31.07;;;;;;;-145.18;100.00;46670.16;4990541;28;20023;-67
2023/03/02 07:38:20;;;;;;;70.27;28.80;;;;;;;-145.18;100.00;46666.25;4990236;28;20045;-68
2023/03/02 07:40:46;;;;;;;76.23;30.43;;;;;;;-145.18;100.00;46670.16;4990617;28;20034;-68
2023/03/02 07:43:11;;;;;;;84.63;31.37;;;;;;;-145.18;100.00;46670.16;4989935;28;20026;-68
2023/03/02 07:45:37;;;;;;;74.33;28.00;;;;;;;-145.18;100.00;46666.25;4990463;28;20034;-68
2023/03/02 07:48:03;;;;;;;70.10;28.13;;;;;;;-145.18;100.00;46666.25;4990096;28;20030;-68
2023/03/02 07:50:28;;;;;;;75.10;29.17;;;;;;;-145.18;100.00;46668.22;4990608;28;20034;-68
2023/03/02 07:52:54;;;;;;;76.57;30.27;;;;;;;-145.18;100.00;46666.25;4989994;28;20031;-68
2023/03/02 07:55:19;;;;;;;67.23;25.97;;;;;;;-145.18;100.00;46670.16;4990363;28;20066;-68
2023/03/02 07:57:44;;;;;;;68.70;27.00;;;;;;;-145.18;100.00;46672.13;4990229;28;20494;-68
2023/03/02 08:00:11;;;;;;;73.00;28.90;;;;;;;-145.18;100.00;46670.16;4990006;28;20038;-68
2023/03/02 08:02:36;;;;;;;64.10;26.55;;;;;;;-145.18;100.00;46670.16;4990352;28;20034;-67
2023/03/02 08:05:02;;;;;;;63.23;25.93;;;;;;;-145.18;100.00;46670.16;4972129;28;20062;-68
2023/03/02 08:07:28;;;;;;;66.43;26.67;;;;;;;-145.18;100.00;46672.13;4973336;28;20079;-68
2023/03/02 08:09:53;;;;;;;62.87;24.20;;;;;;;-145.18;100.00;46674.06;4989943;28;20096;-67
2023/03/02 08:12:18;;;;;;;55.03;24.50;;;;;;;-145.18;100.00;46660.41;4972617;28;20035;-67
2023/03/02 08:14:46;;;;;;;62.33;24.53;;;;;;;-145.18;100.00;46654.53;4990088;28;20042;-68
2023/03/02 08:17:11;;;;;;;71.10;26.63;;;;;;;-145.18;100.00;46644.78;4989970;28;20031;-67
2023/03/02 08:19:37;;;;;;;67.37;24.27;;;;;;;-145.18;100.00;46599.84;4991662;28;20050;-67
2023/03/02 08:22:02;;;;;;;58.83;25.13;;;;;;;-145.18;100.00;46572.50;4993689;28;20526;-68
2023/03/02 08:24:28;;;;;;;57.50;22.17;;;;;;;-145.18;100.00;46552.97;4993546;28;20038;-68
2023/03/02 08:26:54;;;;;;;56.90;23.13;;;;;;;-145.18;100.00;46547.09;4993540;28;20030;-68
2023/03/02 08:29:19;;;;;;;59.80;23.77;;;;;;;-145.18;100.00;46549.06;4993161;28;20026;-68
2023/03/02 08:31:45;;;;;;;55.40;22.43;;;;;;;-145.18;100.00;46554.91;4993634;28;20052;-68
2023/03/02 08:34:10;;;;;;;49.23;20.30;;;;;;;-145.18;100.00;46556.88;4993112;28;20113;-68
2023/03/02 08:36:36;;;;;;;54.77;22.13;;;;;;;-145.18;100.00;46568.59;4993542;28;20062;-68
2023/03/02 08:39:01;;;;;;;53.40;23.03;;;;;;;-145.18;100.00;46572.50;4993084;28;20125;-68
2023/03/02 08:41:26;;;;;;;51.13;21.23;;;;;;;-145.18;100.00;46588.13;4993533;28;20034;-67
2023/03/02 08:43:53;;;;;;;50.13;20.87;;;;;;;-145.18;100.00;46586.16;4975743;28;20483;-67
2023/03/02 08:46:19;;;;;;;51.63;21.63;;;;;;;-145.18;100.00;46607.66;4993016;28;20479;-67
2023/03/02 08:48:45;;;;;;;55.67;22.02;;;;;;;-145.18;100.00;46617.41;4993124;28;20039;-68
2023/03/02 08:51:14;;;;;;;52.38;22.45;;;;;;;-145.18;100.00;46638.91;4992963;28;20037;-68
2023/03/02 08:53:43;;;;;;;47.55;19.95;;;;;;;-145.18;100.00;46629.13;4992963;28;20498;-68
2023/03/02 08:56:26;;;;;;;51.58;21.65;;;;;;;-145.18;100.00;46650.63;4993018;28;20045;-68
2023/03/02 08:58:53;;;;;;;53.47;22.67;;;;;;;-145.18;100.00;46664.31;4992774;28;20494;-68
2023/03/02 09:01:24;;;;;;;56.53;21.00;;;;;;;-145.18;100.00;46660.41;4992744;28;20042;-68
2023/03/02 09:03:50;;;;;;;46.17;21.17;;;;;;;-145.18;100.00;46677.97;4992651;28;20410;-68
2023/03/02 09:06:16;;;;;;;49.30;19.67;;;;;;;-145.18;100.00;46687.75;4992890;28;20034;-68
2023/03/02 09:08:41;;;;;;;52.57;22.97;;;;;;;-145.18;100.00;46687.75;4975125;28;20050;-68
2023/03/02 09:11:07;;;;;;;49.50;20.47;;;;;;;-145.18;100.00;46703.38;4992801;28;20037;-68
2023/03/02 09:13:32;;;;;;;46.47;20.20;;;;;;;-145.18;100.00;46730.72;4992515;28;20026;-68
2023/03/02 09:15:58;;;;;;;45.30;17.77;;;;;;;-145.18;100.00;46748.28;4975381;28;20057;-68
2023/03/02 09:18:23;;;;;;;52.10;20.80;;;;;;;-145.18;100.00;46746.34;4992210;28;20046;-68
2023/03/02 09:20:50;;;;;;;47.20;18.53;;;;;;;-145.18;100.00;46795.19;4992731;28;20030;-68
2023/03/02 09:23:16;;;;;;;43.05;19.58;;;;;;;-145.18;100.00;46785.41;4992296;28;20501;-68
2023/03/02 09:25:42;;;;;;;42.53;18.90;;;;;;;-145.18;100.00;46822.53;4975251;28;20170;-68
2023/03/02 09:28:07;;;;;;;40.77;18.00;;;;;;;-145.18;100.00;46830.34;4992330;28;20391;-68
2023/03/02 09:30:32;;;;;;;44.63;18.47;;;;;;;-145.18;100.00;46869.41;4992078;28;20041;-68
2023/03/02 09:32:58;;;;;;;43.80;19.67;;;;;;;-145.18;100.00;46900.66;4974977;28;20058;-68
2023/03/02 09:35:23;;;;;;;40.80;17.10;;;;;;;-145.18;100.00;46908.47;4974761;28;20395;-68
2023/03/02 09:37:48;;;;;;;40.70;18.77;;;;;;;-145.18;100.00;46910.44;4974804;28;20034;-68
2023/03/02 09:40:23;;;;;;;39.57;16.37;;;;;;;-145.18;100.00;46959.25;4991765;28;20031;-68
2023/03/02 09:43:03;;;;;;;44.85;18.40;;;;;;;-145.18;100.00;46955.34;4992177;28;20066;-68
2023/03/02 09:45:34;;;;;;;35.13;16.88;;;;;;;-145.18;100.00;46965.13;4992461;28;20034;-68
2023/03/02 09:48:09;;;;;;;42.13;17.90;;;;;;;-145.18;100.00;46937.78;4992136;28;20479;-68
2023/03/02 09:50:38;;;;;;;43.53;15.52;;;;;;;-145.18;100.00;47131.19;4991890;28;20495;-68
2023/03/02 09:53:29;;;;;;;40.78;16.35;;;;;;;-145.18;100.00;47445.72;4991748;28;20026;-68
2023/03/02 09:55:59;;;;;;;42.80;18.00;;;;;;;-145.18;100.00;47498.47;4991916;28;20502;-68
2023/03/02 09:58:30;;;;;;;38.20;17.42;;;;;;;-145.18;100.00;47519.97;4991575;28;20479;-68
2023/03/02 10:00:59;;;;;;;42.53;17.75;;;;;;;-145.18;100.00;47592.25;4991841;28;20038;-68
2023/03/02 10:03:35;;;;;;;41.65;18.52;;;;;;;-145.18;100.00;47666.50;4991312;28;20050;-68
2023/03/02 10:06:00;;;;;;;38.30;17.02;;;;;;;-145.18;100.00;47656.72;4991792;28;20023;-68
2023/03/02 10:08:34;;;;;;;37.43;17.10;;;;;;;-145.18;100.00;47650.88;4991285;28;20030;-68
2023/03/02 10:11:17;;;;;;;32.00;14.47;;;;;;;-145.18;100.00;47629.38;4991869;28;20105;-68
2023/03/02 10:14:12;;;;;;;36.43;16.07;;;;;;;-145.18;100.00;47635.22;4991330;28;20259;-68
2023/03/02 10:16:51;;;;;;;33.57;16.10;;;;;;;-145.18;100.00;47627.41;4962848;28;20322;-68
2023/03/02 10:19:40;;;;;;;34.53;16.10;;;;;;;-145.18;100.00;47629.38;4991066;28;20288;-68
2023/03/02 10:22:14;;;;;;;38.20;17.00;;;;;;;-145.18;100.00;47621.56;4991294;28;20722;-68
2023/03/02 10:24:53;;;;;;;33.83;16.40;;;;;;;-145.18;100.00;47586.38;4991023;28;20287;-68
2023/03/02 10:27:33;;;;;;;35.70;16.20;;;;;;;-145.18;100.00;47570.75;4991389;28;20330;-68
2023/03/02 10:30:13;;;;;;;32.67;16.03;;;;;;;-145.18;100.00;47590.28;4991198;28;20366;-68
2023/03/02 10:32:46;;;;;;;39.00;16.10;;;;;;;-145.18;100.00;47572.72;4991615;28;20299;-68
2023/03/02 10:35:21;;;;;;;30.70;14.47;;;;;;;-145.18;100.00;47576.63;4990574;28;20292;-68
2023/03/02 10:38:01;;;;;;;41.58;15.55;;;;;;;-145.18;100.00;47576.63;4991418;28;20264;-68
2023/03/02 10:40:42;;;;;;;38.87;15.97;;;;;;;-145.18;100.00;47574.66;4990770;28;20034;-68
2023/03/02 10:43:32;;;;;;;32.50;15.83;;;;;;;-145.18;100.00;47562.94;4990451;28;20262;-68
2023/03/02 10:46:09;;;;;;;35.33;16.43;;;;;;;-145.18;100.00;47555.13;4991070;28;20617;-68
2023/03/02 10:48:52;;;;;;;32.97;15.87;;;;;;;-145.18;100.00;47531.69;4990798;28;20256;-68
2023/03/02 10:51:28;;;;;;;32.87;15.47;;;;;;;-145.18;100.00;47541.44;4991005;28;20260;-68
2023/03/02 10:54:11;;;;;;;34.20;14.63;;;;;;;-145.18;100.00;47547.31;4990791;28;20274;-68
2023/03/02 10:56:37;;;;;;;33.80;16.40;;;;;;;-145.18;100.00;47541.44;4990956;28;20322;-68
2023/03/02 10:59:29;;;;;;;35.70;15.57;;;;;;;-145.18;100.00;47529.72;4990530;28;20308;-68